Private Wetterstation Wechselburg
Wetterdaten: Dienstag, 05.06.2012
Datum Zeit Temp. +2m Bodentemp. Temp.+5cm Temp. Wind Windchill X Diff Temp. Feuchte +2m Feuchte +5cm Sonnenschein Luftdruck Regen Wind Richtung Richtung Sonnenschein UV Taupunkt Windchill Windben
05.06.2012 00:00 11,4 C 19,6 C 12,8 C 11,3 C 11,0 C 0,0 C 89 % 95 % 0 % 1009,8 hPa 0,0 l/m 0,0 km/h (0 Bft) O-SO 112 0 min 0,0 UV-I 9,7 C 11,0 C 0,0 km/h (0 Bft)
05.06.2012 00:06 11,3 C 19,6 C 12,7 C 11,3 C 11,2 C 0,0 C 89 % 95 % 0 % 1010,0 hPa 0,0 l/m 0,0 km/h (0 Bft) N 0 0 min 0,0 UV-I 9,6 C 11,2 C 0,0 km/h (0 Bft)
05.06.2012 00:20 11,3 C 19,6 C 12,8 C 11,4 C 11,4 C 0,1 C 89 % 95 % 0 % 1010,0 hPa 0,0 l/m 0,0 km/h (0 Bft) S-SO 157 0 min 0,0 UV-I 9,6 C 11,4 C 0,0 km/h (0 Bft)
05.06.2012 00:25 11,3 C 19,6 C 12,8 C 11,5 C 11,5 C 0,2 C 89 % 95 % 0 % 1009,8 hPa 0,0 l/m 0,0 km/h (0 Bft) S-SO 157 0 min 0,0 UV-I 9,6 C 11,5 C 0,0 km/h (0 Bft)
05.06.2012 00:30 11,3 C 19,6 C 12,8 C 11,5 C 11,5 C 0,2 C 90 % 95 % 0 % 1009,8 hPa 0,0 l/m 0,0 km/h (0 Bft) S-SO 157 0 min 0,0 UV-I 9,7 C 11,5 C 0,0 km/h (0 Bft)
05.06.2012 00:35 11,3 C 19,6 C 12,8 C 11,6 C 11,6 C 0,3 C 90 % 95 % 0 % 1009,8 hPa 0,0 l/m 0,0 km/h (0 Bft) S 180 0 min 0,0 UV-I 9,7 C 11,6 C 0,0 km/h (0 Bft)
05.06.2012 00:40 11,3 C 19,6 C 12,7 C 11,5 C 11,5 C 0,2 C 90 % 95 % 0 % 1009,8 hPa 0,0 l/m 0,0 km/h (0 Bft) O-SO 112 0 min 0,0 UV-I 9,7 C 11,5 C 0,0 km/h (0 Bft)
05.06.2012 00:45 11,3 C 19,6 C 12,7 C 11,5 C 11,5 C 0,2 C 90 % 95 % 0 % 1009,4 hPa 0,0 l/m 0,0 km/h (0 Bft) S 180 0 min 0,0 UV-I 9,7 C 11,5 C 0,0 km/h (0 Bft)
05.06.2012 00:50 11,3 C 19,6 C 12,7 C 11,5 C 11,5 C 0,2 C 90 % 95 % 0 % 1009,4 hPa 0,0 l/m 0,0 km/h (0 Bft) S-SO 157 0 min 0,0 UV-I 9,7 C 11,5 C 0,0 km/h (0 Bft)
05.06.2012 00:55 11,3 C 19,6 C 12,7 C 11,4 C 11,4 C 0,1 C 90 % 95 % 0 % 1009,4 hPa 0,0 l/m 0,0 km/h (0 Bft) SO 135 0 min 0,0 UV-I 9,7 C 11,4 C 0,0 km/h (0 Bft)
05.06.2012 01:00 11,2 C 19,6 C 12,7 C 11,4 C 11,4 C 0,2 C 90 % 95 % 0 % 1009,4 hPa 0,0 l/m 0,0 km/h (0 Bft) SO 135 0 min 0,0 UV-I 9,6 C 11,4 C 0,0 km/h (0 Bft)
05.06.2012 01:10 11,2 C 19,6 C 12,6 C 11,4 C 11,4 C 0,2 C 90 % 95 % 0 % 1009,3 hPa 0,0 l/m 0,0 km/h (0 Bft) N 0 0 min 0,0 UV-I 9,6 C 11,4 C 0,0 km/h (0 Bft)
05.06.2012 01:30 11,2 C 19,6 C 12,6 C 11,4 C 11,4 C 0,2 C 90 % 95 % 0 % 1009,1 hPa 0,7 l/m 0,2 km/h (0 Bft) SW 225 0 min 0,0 UV-I 9,6 C 11,4 C 0,0 km/h (0 Bft)
05.06.2012 01:35 11,2 C 19,6 C 12,7 C 11,4 C 11,4 C 0,2 C 90 % 95 % 0 % 1009,1 hPa 0,0 l/m 0,2 km/h (0 Bft) S-SO 157 0 min 0,0 UV-I 9,6 C 11,4 C 2,7 km/h (1 Bft)
05.06.2012 01:40 11,2 C 19,6 C 12,6 C 11,3 C 11,3 C 0,1 C 90 % 95 % 0 % 1009,1 hPa 0,0 l/m 0,0 km/h (0 Bft) SO 135 0 min 0,0 UV-I 9,6 C 11,3 C 0,0 km/h (0 Bft)
05.06.2012 01:45 11,2 C 19,6 C 12,7 C 11,3 C 11,3 C 0,1 C 90 % 95 % 0 % 1008,8 hPa 0,0 l/m 0,0 km/h (0 Bft) SO 135 0 min 0,0 UV-I 9,6 C 11,3 C 0,0 km/h (0 Bft)
05.06.2012 01:50 11,1 C 19,6 C 12,7 C 11,2 C 11,2 C 0,1 C 90 % 95 % 0 % 1008,8 hPa 0,0 l/m 0,0 km/h (0 Bft) SO 135 0 min 0,0 UV-I 9,5 C 11,2 C 0,0 km/h (0 Bft)
05.06.2012 01:55 11,1 C 19,5 C 12,7 C 11,3 C 11,3 C 0,2 C 90 % 95 % 0 % 1008,8 hPa 0,0 l/m 0,0 km/h (0 Bft) SO 135 0 min 0,0 UV-I 9,5 C 11,3 C 0,0 km/h (0 Bft)
05.06.2012 02:00 11,1 C 19,5 C 12,7 C 11,3 C 11,3 C 0,2 C 90 % 95 % 0 % 1008,8 hPa 0,0 l/m 0,0 km/h (0 Bft) O-SO 112 0 min 0,0 UV-I 9,5 C 11,3 C 0,0 km/h (0 Bft)
05.06.2012 02:04 11,1 C 19,5 C 12,7 C 11,3 C 11,3 C 0,2 C 90 % 95 % 0 % 1008,5 hPa 0,0 l/m 0,0 km/h (0 Bft) SO 135 0 min 0,0 UV-I 9,5 C 11,3 C 0,0 km/h (0 Bft)
05.06.2012 02:09 11,1 C 19,5 C 12,7 C 11,3 C 11,3 C 0,2 C 91 % 95 % 0 % 1008,5 hPa 0,0 l/m 0,0 km/h (0 Bft) O-SO 112 0 min 0,0 UV-I 9,7 C 11,3 C 0,0 km/h (0 Bft)
05.06.2012 02:14 11,1 C 19,5 C 12,7 C 11,3 C 11,3 C 0,2 C 91 % 95 % 0 % 1008,5 hPa 0,0 l/m 0,0 km/h (0 Bft) SO 135 0 min 0,0 UV-I 9,7 C 11,3 C 0,0 km/h (0 Bft)
05.06.2012 02:19 11,1 C 19,5 C 12,7 C 11,4 C 11,4 C 0,3 C 91 % 95 % 0 % 1008,1 hPa 0,0 l/m 0,0 km/h (0 Bft) W-SW 247 0 min 0,0 UV-I 9,7 C 11,4 C 0,0 km/h (0 Bft)
05.06.2012 02:28 11,1 C 19,5 C 12,7 C 11,4 C 11,4 C 0,3 C 91 % 95 % 0 % 1008,1 hPa 0,0 l/m 0,2 km/h (0 Bft) W-SW 247 0 min 0,0 UV-I 9,7 C 11,4 C 0,0 km/h (0 Bft)
05.06.2012 02:35 11,1 C 19,5 C 12,7 C 11,4 C 11,4 C 0,3 C 91 % 95 % 0 % 1008,1 hPa 0,0 l/m 0,5 km/h (0 Bft) O-SO 112 0 min 0,0 UV-I 9,7 C 11,4 C 4,8 km/h (1 Bft)
05.06.2012 02:40 11,1 C 19,5 C 12,7 C 11,4 C 11,4 C 0,3 C 91 % 95 % 0 % 1008,1 hPa 0,0 l/m 0,8 km/h (0 Bft) S 180 0 min 0,0 UV-I 9,7 C 11,4 C 4,0 km/h (1 Bft)
05.06.2012 02:45 11,1 C 19,5 C 12,7 C 11,5 C 11,5 C 0,4 C 91 % 95 % 0 % 1008,4 hPa 0,0 l/m 0,6 km/h (0 Bft) S-SO 157 0 min 0,0 UV-I 9,7 C 11,5 C 3,7 km/h (1 Bft)
05.06.2012 02:50 11,2 C 19,5 C 12,7 C 11,6 C 11,6 C 0,4 C 91 % 95 % 0 % 1008,4 hPa 0,0 l/m 1,0 km/h (0 Bft) SW 225 0 min 0,0 UV-I 9,8 C 11,6 C 2,4 km/h (1 Bft)
05.06.2012 02:55 11,3 C 19,5 C 12,7 C 11,6 C 11,6 C 0,3 C 91 % 95 % 0 % 1008,4 hPa 0,0 l/m 0,8 km/h (0 Bft) S-SO 157 0 min 0,0 UV-I 9,9 C 11,6 C 5,1 km/h (1 Bft)
05.06.2012 03:00 11,2 C 19,5 C 12,7 C 11,6 C 11,6 C 0,4 C 91 % 95 % 0 % 1008,4 hPa 0,7 l/m 0,3 km/h (0 Bft) S-SW 202 0 min 0,0 UV-I 9,8 C 11,6 C 0,0 km/h (0 Bft)
05.06.2012 03:04 11,3 C 19,5 C 12,7 C 11,7 C 11,7 C 0,4 C 91 % 95 % 0 % 1008,5 hPa 0,7 l/m 0,8 km/h (0 Bft) SW 225 0 min 0,0 UV-I 9,9 C 11,7 C 2,9 km/h (1 Bft)
05.06.2012 03:09 11,4 C 19,5 C 12,7 C 11,8 C 11,8 C 0,4 C 91 % 95 % 0 % 1008,5 hPa 0,0 l/m 1,1 km/h (1 Bft) SW 225 0 min 0,0 UV-I 10,0 C 11,8 C 4,8 km/h (1 Bft)
05.06.2012 03:14 11,5 C 19,5 C 12,7 C 11,8 C 11,8 C 0,3 C 91 % 95 % 0 % 1008,5 hPa 0,0 l/m 1,8 km/h (1 Bft) S 180 0 min 0,0 UV-I 10,1 C 11,8 C 2,7 km/h (1 Bft)
05.06.2012 03:19 11,5 C 19,5 C 12,7 C 11,8 C 11,8 C 0,3 C 92 % 95 % 0 % 1008,2 hPa 0,0 l/m 1,9 km/h (1 Bft) S-SO 157 0 min 0,0 UV-I 10,2 C 11,8 C 2,1 km/h (1 Bft)
05.06.2012 03:25 11,5 C 19,5 C 12,7 C 11,8 C 11,8 C 0,3 C 92 % 95 % 0 % 1008,2 hPa 0,0 l/m 1,9 km/h (1 Bft) S-SO 157 0 min 0,0 UV-I 10,2 C 11,8 C 2,1 km/h (1 Bft)
05.06.2012 03:30 11,5 C 19,5 C 12,7 C 11,8 C 11,8 C 0,3 C 92 % 95 % 0 % 1008,2 hPa 0,0 l/m 1,3 km/h (1 Bft) SW 225 0 min 0,0 UV-I 10,2 C 11,8 C 0,0 km/h (0 Bft)
05.06.2012 03:35 11,4 C 19,5 C 12,7 C 11,8 C 11,8 C 0,4 C 92 % 95 % 0 % 1008,2 hPa 0,0 l/m 1,8 km/h (1 Bft) S-SW 202 0 min 0,0 UV-I 10,1 C 11,8 C 6,8 km/h (2 Bft)
05.06.2012 03:40 11,5 C 19,5 C 12,7 C 11,8 C 11,8 C 0,3 C 92 % 95 % 0 % 1008,2 hPa 0,0 l/m 2,1 km/h (1 Bft) W-SW 247 0 min 0,0 UV-I 10,2 C 11,8 C 3,5 km/h (1 Bft)
05.06.2012 03:45 11,1 C 19,4 C 12,3 C 11,5 C 11,5 C 0,4 C 90 % 95 % 0 % 1008,6 hPa 0,0 l/m 4,7 km/h (1 Bft) W-SW 247 0 min 0,0 UV-I 9,5 C 11,5 C 11,1 km/h (2 Bft)
05.06.2012 03:50 10,7 C 19,4 C 12,1 C 10,6 C 10,4 C 0,0 C 89 % 95 % 0 % 1008,6 hPa 0,0 l/m 6,3 km/h (2 Bft) O-SO 112 0 min 0,0 UV-I 9,0 C 10,4 C 11,3 km/h (2 Bft)
05.06.2012 03:55 10,2 C 19,5 C 11,6 C 10,1 C 9,2 C 0,0 C 88 % 95 % 0 % 1008,6 hPa 0,0 l/m 8,0 km/h (2 Bft) SW 225 0 min 0,0 UV-I 8,3 C 8,1 C 16,4 km/h (3 Bft)
05.06.2012 04:00 9,9 C 19,4 C 11,4 C 9,7 C 8,6 C 0,0 C 88 % 95 % 0 % 1008,6 hPa 0,0 l/m 8,7 km/h (2 Bft) W-SW 247 0 min 0,0 UV-I 8,0 C 7,2 C 13,2 km/h (3 Bft)
05.06.2012 04:16 9,1 C 19,4 C 10,9 C 8,9 C 7,8 C 0,0 C 89 % 96 % 0 % 1009,1 hPa 0,0 l/m 8,0 km/h (2 Bft) W-SW 247 0 min 0,0 UV-I 7,4 C 6,4 C 17,7 km/h (3 Bft)
05.06.2012 04:17 9,1 C 19,4 C 10,9 C 8,7 C 7,8 C 0,0 C 89 % 96 % 0 % 1009,1 hPa 0,0 l/m 8,0 km/h (2 Bft) W-SW 247 0 min 0,0 UV-I 7,4 C 6,4 C 12,9 km/h (3 Bft)
05.06.2012 04:20 9,1 C 19,4 C 10,9 C 7,9 C 7,8 C 0,0 C 89 % 96 % 0 % 1009,1 hPa 0,0 l/m 8,0 km/h (2 Bft) W-SW 247 0 min 0,0 UV-I 7,4 C 6,4 C 12,9 km/h (3 Bft)
05.06.2012 04:30 8,9 C 19,4 C 10,7 C 8,5 C 7,8 C 0,0 C 90 % 95 % 0 % 1009,6 hPa 0,0 l/m 7,2 km/h (2 Bft) W 270 0 min 0,0 UV-I 7,4 C 6,6 C 15,3 km/h (3 Bft)
05.06.2012 04:35 8,7 C 19,3 C 10,7 C 8,5 C 7,7 C 0,0 C 90 % 95 % 0 % 1009,6 hPa 0,0 l/m 8,2 km/h (2 Bft) S 180 0 min 0,0 UV-I 7,2 C 6,3 C 5,8 km/h (2 Bft)
05.06.2012 04:40 8,7 C 19,3 C 10,6 C 8,4 C 7,8 C 0,0 C 90 % 95 % 0 % 1009,6 hPa 0,0 l/m 7,6 km/h (2 Bft) SW 225 0 min 0,0 UV-I 7,2 C 6,5 C 7,2 km/h (2 Bft)
05.06.2012 04:45 8,5 C 19,3 C 10,6 C 8,3 C 8,0 C 0,0 C 90 % 95 % 0 % 1010,2 hPa 0,0 l/m 6,6 km/h (2 Bft) S 180 0 min 0,0 UV-I 7,0 C 7,0 C 9,5 km/h (2 Bft)
05.06.2012 04:50 8,5 C 19,3 C 10,5 C 8,2 C 7,7 C 0,0 C 90 % 95 % 0 % 1010,2 hPa 0,0 l/m 7,4 km/h (2 Bft) SW 225 0 min 0,0 UV-I 7,0 C 6,4 C 9,5 km/h (2 Bft)
05.06.2012 04:55 8,5 C 19,3 C 10,4 C 8,2 C 7,7 C 0,0 C 90 % 95 % 0 % 1010,2 hPa 0,0 l/m 6,9 km/h (2 Bft) W-SW 247 0 min 0,0 UV-I 7,0 C 6,6 C 9,8 km/h (2 Bft)
05.06.2012 05:00 8,4 C 19,2 C 10,4 C 8,2 C 7,8 C 0,0 C 90 % 95 % 0 % 1010,2 hPa 0,0 l/m 6,6 km/h (2 Bft) SW 225 0 min 0,0 UV-I 6,9 C 6,8 C 12,1 km/h (2 Bft)
05.06.2012 05:11 8,1 C 19,1 C 10,3 C 8,0 C 7,1 C 0,0 C 90 % 95 % 0 % 1010,8 hPa 0,0 l/m 8,0 km/h (2 Bft) N 0 0 min 0,0 UV-I 6,6 C 5,6 C 22,7 km/h (4 Bft)
05.06.2012 05:20 8,0 C 19,1 C 10,1 C 7,7 C 7,1 C 0,0 C 90 % 95 % 0 % 1010,8 hPa 0,0 l/m 8,0 km/h (2 Bft) S-SW 202 0 min 0,0 UV-I 6,5 C 5,6 C 5,5 km/h (1 Bft)
05.06.2012 05:25 8,1 C 19,1 C 10,0 C 7,9 C 6,9 C 0,0 C 90 % 95 % 0 % 1011,7 hPa 0,0 l/m 8,4 km/h (2 Bft) S 180 0 min 0,0 UV-I 6,6 C 5,3 C 25,7 km/h (4 Bft)
05.06.2012 05:30 8,0 C 19,0 C 10,0 C 7,7 C 7,2 C 0,0 C 90 % 96 % 0 % 1011,7 hPa 0,0 l/m 6,9 km/h (2 Bft) S 180 0 min 0,0 UV-I 6,5 C 6,0 C 17,4 km/h (3 Bft)
05.06.2012 05:35 8,0 C 19,0 C 10,0 C 7,7 C 7,2 C 0,0 C 89 % 96 % 0 % 1011,7 hPa 0,0 l/m 6,8 km/h (2 Bft) S-SO 157 0 min 0,0 UV-I 6,3 C 6,0 C 10,1 km/h (2 Bft)
05.06.2012 05:40 8,0 C 19,0 C 10,1 C 7,7 C 7,1 C 0,0 C 89 % 96 % 0 % 1011,7 hPa 0,0 l/m 7,2 km/h (2 Bft) SW 225 0 min 0,0 UV-I 6,3 C 5,8 C 7,1 km/h (2 Bft)
05.06.2012 05:45 7,9 C 18,9 C 10,0 C 7,7 C 7,3 C 0,0 C 89 % 96 % 0 % 1012,2 hPa 0,0 l/m 6,4 km/h (2 Bft) S 180 0 min 0,0 UV-I 6,2 C 6,3 C 11,6 km/h (2 Bft)
05.06.2012 05:50 7,9 C 18,9 C 10,0 C 7,8 C 7,5 C 0,0 C 89 % 96 % 0 % 1012,2 hPa 0,0 l/m 5,6 km/h (1 Bft) S-SW 202 0 min 0,0 UV-I 6,2 C 6,7 C 4,3 km/h (1 Bft)
05.06.2012 05:55 7,9 C 18,9 C 9,9 C 7,7 C 7,3 C 0,0 C 89 % 96 % 0 % 1012,2 hPa 0,0 l/m 6,4 km/h (2 Bft) W-SW 247 0 min 0,0 UV-I 6,2 C 6,3 C 7,6 km/h (2 Bft)
05.06.2012 06:00 7,8 C 18,8 C 10,0 C 7,7 C 7,5 C 0,0 C 89 % 96 % 0 % 1012,2 hPa 0,0 l/m 5,8 km/h (2 Bft) SW 225 0 min 0,0 UV-I 6,1 C 6,7 C 9,7 km/h (2 Bft)
05.06.2012 06:11 7,6 C 18,8 C 9,9 C 7,4 C 7,1 C 0,0 C 88 % 96 % 0 % 1012,9 hPa 0,0 l/m 6,6 km/h (2 Bft) N 0 0 min 0,0 UV-I 5,7 C 6,0 C 8,4 km/h (2 Bft)
05.06.2012 06:20 7,6 C 18,8 C 9,9 C 7,5 C 7,3 C 0,0 C 88 % 96 % 0 % 1012,9 hPa 0,0 l/m 6,0 km/h (2 Bft) S 180 0 min 0,0 UV-I 5,7 C 6,4 C 8,7 km/h (2 Bft)
05.06.2012 06:25 7,7 C 18,7 C 9,8 C 7,6 C 7,4 C 0,0 C 89 % 96 % 0 % 1013,1 hPa 0,0 l/m 5,3 km/h (1 Bft) S 180 0 min 0,0 UV-I 6,0 C 6,7 C 9,2 km/h (2 Bft)
05.06.2012 06:30 7,7 C 18,7 C 9,7 C 7,6 C 7,3 C 0,0 C 88 % 96 % 0 % 1013,1 hPa 0,0 l/m 6,0 km/h (2 Bft) SW 225 0 min 0,0 UV-I 5,8 C 6,4 C 6,4 km/h (2 Bft)
05.06.2012 06:35 7,6 C 18,7 C 9,7 C 7,4 C 7,0 C 0,0 C 88 % 96 % 0 % 1013,1 hPa 0,0 l/m 6,4 km/h (2 Bft) SW 225 0 min 0,0 UV-I 5,7 C 5,9 C 10,9 km/h (2 Bft)
05.06.2012 06:40 7,6 C 18,7 C 9,9 C 7,5 C 7,3 C 0,0 C 88 % 96 % 0 % 1013,1 hPa 0,0 l/m 5,5 km/h (1 Bft) W 270 0 min 0,0 UV-I 5,7 C 6,5 C 4,8 km/h (1 Bft)
05.06.2012 06:45 7,5 C 18,6 C 9,7 C 7,4 C 7,2 C 0,0 C 88 % 96 % 0 % 1013,5 hPa 0,0 l/m 6,0 km/h (2 Bft) SW 225 0 min 0,0 UV-I 5,6 C 6,3 C 6,6 km/h (2 Bft)
05.06.2012 06:50 7,6 C 18,7 C 9,8 C 7,5 C 7,3 C 0,0 C 88 % 96 % 0 % 1013,5 hPa 0,0 l/m 5,1 km/h (1 Bft) W-SW 247 0 min 0,0 UV-I 5,7 C 6,7 C 4,5 km/h (1 Bft)
05.06.2012 06:55 7,5 C 18,6 C 9,8 C 7,7 C 7,7 C 0,2 C 88 % 96 % 5 % 1013,5 hPa 0,0 l/m 3,7 km/h (1 Bft) W-SW 247 0 min 0,0 UV-I 5,6 C 7,7 C 2,1 km/h (1 Bft)
05.06.2012 07:00 7,4 C 18,6 C 9,9 C 7,6 C 7,6 C 0,2 C 88 % 96 % 5 % 1013,5 hPa 0,0 l/m 3,4 km/h (1 Bft) SW 225 0 min 0,0 UV-I 5,5 C 7,6 C 5,3 km/h (1 Bft)
05.06.2012 07:11 7,3 C 18,6 C 9,6 C 7,2 C 7,1 C 0,0 C 89 % 96 % 0 % 1014,1 hPa 0,0 l/m 4,8 km/h (1 Bft) N 0 0 min 0,0 UV-I 5,6 C 6,5 C 4,5 km/h (1 Bft)
05.06.2012 07:20 7,2 C 18,6 C 9,6 C 7,2 C 7,2 C 0,0 C 89 % 96 % 0 % 1014,1 hPa 0,0 l/m 4,5 km/h (1 Bft) SW 225 0 min 0,0 UV-I 5,5 C 7,2 C 4,2 km/h (1 Bft)
05.06.2012 07:25 7,2 C 18,6 C 9,5 C 7,1 C 6,8 C 0,0 C 89 % 96 % 0 % 1014,2 hPa 0,0 l/m 5,6 km/h (1 Bft) W 270 0 min 0,0 UV-I 5,5 C 5,9 C 15,3 km/h (3 Bft)
05.06.2012 07:30 7,2 C 18,6 C 9,5 C 7,0 C 6,7 C 0,0 C 89 % 96 % 0 % 1014,2 hPa 0,0 l/m 5,6 km/h (1 Bft) S 180 0 min 0,0 UV-I 5,5 C 5,8 C 4,0 km/h (1 Bft)
05.06.2012 07:35 7,2 C 18,6 C 9,5 C 7,1 C 6,9 C 0,0 C 90 % 96 % 0 % 1014,2 hPa 0,0 l/m 5,3 km/h (1 Bft) W-SW 247 0 min 0,0 UV-I 5,7 C 6,1 C 5,5 km/h (1 Bft)
05.06.2012 07:40 7,2 C 18,6 C 9,4 C 7,2 C 7,1 C 0,0 C 90 % 96 % 0 % 1014,2 hPa 0,0 l/m 5,0 km/h (1 Bft) SW 225 0 min 0,0 UV-I 5,7 C 6,5 C 3,9 km/h (1 Bft)
05.06.2012 07:45 7,2 C 18,5 C 9,5 C 7,2 C 7,1 C 0,0 C 90 % 96 % 0 % 1014,6 hPa 0,0 l/m 4,8 km/h (1 Bft) NW 315 0 min 0,0 UV-I 5,7 C 6,5 C 5,5 km/h (1 Bft)
05.06.2012 07:50 7,2 C 18,5 C 9,4 C 7,2 C 7,2 C 0,0 C 90 % 96 % 0 % 1014,6 hPa 0,0 l/m 4,7 km/h (1 Bft) SW 225 0 min 0,0 UV-I 5,7 C 6,7 C 6,1 km/h (2 Bft)
05.06.2012 07:55 7,2 C 18,5 C 9,4 C 7,2 C 7,1 C 0,0 C 90 % 96 % 0 % 1014,6 hPa 0,0 l/m 5,0 km/h (1 Bft) W-SW 247 0 min 0,0 UV-I 5,7 C 6,5 C 3,9 km/h (1 Bft)
05.06.2012 08:00 7,2 C 18,5 C 9,5 C 7,2 C 7,1 C 0,0 C 90 % 96 % 0 % 1014,6 hPa 0,7 l/m 5,3 km/h (1 Bft) W-SW 247 0 min 0,0 UV-I 5,7 C 6,4 C 7,4 km/h (2 Bft)
05.06.2012 08:05 7,2 C 18,5 C 9,3 C 7,1 C 6,8 C 0,0 C 90 % 96 % 0 % 1015,0 hPa 0,0 l/m 6,0 km/h (2 Bft) SW 225 0 min 0,0 UV-I 5,7 C 5,8 C 9,5 km/h (2 Bft)
05.06.2012 08:10 7,3 C 18,5 C 9,5 C 7,2 C 6,9 C 0,0 C 91 % 96 % 0 % 1015,0 hPa 0,0 l/m 6,1 km/h (2 Bft) S 180 0 min 0,0 UV-I 5,9 C 5,9 C 7,2 km/h (2 Bft)
05.06.2012 08:15 7,3 C 18,4 C 9,5 C 7,3 C 7,2 C 0,0 C 91 % 96 % 0 % 1015,0 hPa 0,0 l/m 5,6 km/h (1 Bft) W 270 0 min 0,0 UV-I 5,9 C 6,4 C 6,8 km/h (2 Bft)
05.06.2012 08:20 7,3 C 18,4 C 9,5 C 7,3 C 7,3 C 0,0 C 91 % 96 % 0 % 1015,0 hPa 0,0 l/m 5,6 km/h (1 Bft) N-NW 337 0 min 0,0 UV-I 5,9 C 6,5 C 11,7 km/h (2 Bft)
05.06.2012 08:25 7,5 C 18,4 C 9,6 C 7,8 C 7,8 C 0,3 C 91 % 96 % 8 % 1015,4 hPa 0,0 l/m 4,3 km/h (1 Bft) W-SW 247 0 min 0,0 UV-I 6,1 C 7,8 C 4,5 km/h (1 Bft)
05.06.2012 08:30 7,5 C 18,4 C 9,5 C 8,1 C 8,1 C 0,6 C 91 % 96 % 16 % 1015,4 hPa 0,0 l/m 3,9 km/h (1 Bft) S 180 0 min 0,0 UV-I 6,1 C 8,1 C 6,0 km/h (2 Bft)
05.06.2012 08:35 7,4 C 18,4 C 9,6 C 7,8 C 7,8 C 0,4 C 91 % 96 % 11 % 1015,4 hPa 0,0 l/m 4,3 km/h (1 Bft) SW 225 0 min 0,0 UV-I 6,0 C 7,8 C 7,4 km/h (2 Bft)
05.06.2012 08:40 7,5 C 18,3 C 9,5 C 7,7 C 7,7 C 0,2 C 91 % 96 % 5 % 1015,4 hPa 0,0 l/m 4,8 km/h (1 Bft) W-SW 247 0 min 0,0 UV-I 6,1 C 7,2 C 8,5 km/h (2 Bft)
05.06.2012 08:45 7,5 C 18,3 C 9,5 C 7,5 C 7,4 C 0,0 C 91 % 96 % 0 % 1015,8 hPa 0,0 l/m 6,1 km/h (2 Bft) NW 315 0 min 0,0 UV-I 6,1 C 6,5 C 5,1 km/h (1 Bft)
05.06.2012 08:50 7,5 C 18,3 C 9,5 C 7,7 C 7,7 C 0,2 C 91 % 96 % 5 % 1015,8 hPa 0,0 l/m 5,8 km/h (2 Bft) O 90 0 min 0,0 UV-I 6,1 C 6,9 C 7,7 km/h (2 Bft)
05.06.2012 08:55 7,6 C 18,3 C 9,6 C 8,2 C 8,2 C 0,6 C 91 % 96 % 16 % 1015,8 hPa 0,0 l/m 4,5 km/h (1 Bft) S 180 0 min 0,0 UV-I 6,2 C 8,2 C 3,4 km/h (1 Bft)
05.06.2012 09:00 7,6 C 18,3 C 9,6 C 8,3 C 8,3 C 0,7 C 90 % 96 % 18 % 1015,8 hPa 0,0 l/m 4,7 km/h (1 Bft) W-SW 247 0 min 0,0 UV-I 6,1 C 7,9 C 11,7 km/h (2 Bft)
05.06.2012 09:06 7,6 C 18,2 C 9,6 C 8,1 C 8,1 C 0,5 C 90 % 96 % 13 % 1016,4 hPa 0,0 l/m 5,8 km/h (2 Bft) N 0 0 min 0,0 UV-I 6,1 C 7,3 C 7,9 km/h (2 Bft)
05.06.2012 09:20 7,9 C 18,2 C 9,6 C 8,6 C 8,6 C 0,7 C 90 % 96 % 18 % 1016,4 hPa 0,0 l/m 5,5 km/h (1 Bft) W-SW 247 0 min 0,0 UV-I 6,4 C 8,0 C 3,2 km/h (1 Bft)
05.06.2012 09:25 7,8 C 18,1 C 9,7 C 8,6 C 8,6 C 0,8 C 89 % 96 % 21 % 1016,6 hPa 0,0 l/m 6,0 km/h (2 Bft) SW 225 0 min 0,0 UV-I 6,1 C 7,9 C 8,4 km/h (2 Bft)
05.06.2012 09:30 7,9 C 18,1 C 9,7 C 8,9 C 8,9 C 1,0 C 89 % 96 % 26 % 1016,6 hPa 0,0 l/m 4,8 km/h (1 Bft) W 270 0 min 0,0 UV-I 6,2 C 8,6 C 6,6 km/h (2 Bft)
05.06.2012 09:35 8,0 C 18,1 C 9,6 C 9,2 C 9,2 C 1,2 C 89 % 96 % 32 % 1016,6 hPa 0,0 l/m 4,7 km/h (1 Bft) SW 225 0 min 0,0 UV-I 6,3 C 8,9 C 8,2 km/h (2 Bft)
05.06.2012 09:40 8,0 C 18,1 C 9,6 C 9,0 C 9,0 C 1,0 C 89 % 96 % 26 % 1016,6 hPa 0,0 l/m 5,1 km/h (1 Bft) S-SW 202 0 min 0,0 UV-I 6,3 C 8,6 C 5,3 km/h (1 Bft)
05.06.2012 09:45 8,0 C 18,1 C 9,7 C 8,6 C 8,6 C 0,6 C 89 % 96 % 16 % 1017,0 hPa 0,0 l/m 6,3 km/h (2 Bft) S-SW 202 0 min 0,0 UV-I 6,3 C 7,8 C 7,7 km/h (2 Bft)
05.06.2012 09:50 8,0 C 18,1 C 9,7 C 8,8 C 8,8 C 0,8 C 89 % 96 % 21 % 1017,0 hPa 0,0 l/m 6,1 km/h (2 Bft) SW 225 0 min 0,0 UV-I 6,3 C 8,1 C 4,8 km/h (1 Bft)
05.06.2012 09:55 8,1 C 18,0 C 9,8 C 9,6 C 9,6 C 1,5 C 89 % 96 % 39 % 1017,0 hPa 0,0 l/m 5,0 km/h (1 Bft) O-SO 112 0 min 0,0 UV-I 6,4 C 9,3 C 4,5 km/h (1 Bft)
05.06.2012 10:00 8,3 C 18,1 C 9,8 C 9,9 C 9,9 C 1,6 C 89 % 96 % 42 % 1017,0 hPa 0,0 l/m 4,5 km/h (1 Bft) W-SW 247 0 min 0,0 UV-I 6,6 C 9,9 C 9,5 km/h (2 Bft)
05.06.2012 10:11 8,5 C 18,0 C 9,9 C 10,7 C 10,7 C 2,2 C 87 % 96 % 58 % 1017,2 hPa 0,0 l/m 5,3 km/h (1 Bft) N 0 0 min 0,0 UV-I 6,5 C 10,7 C 5,0 km/h (1 Bft)
05.06.2012 10:20 8,7 C 18,0 C 9,9 C 11,1 C 11,1 C 2,4 C 87 % 96 % 63 % 1017,2 hPa 0,0 l/m 5,3 km/h (1 Bft) S 180 0 min 0,0 UV-I 6,7 C 11,1 C 11,1 km/h (2 Bft)
05.06.2012 10:25 8,6 C 18,0 C 9,9 C 10,3 C 10,3 C 1,7 C 86 % 96 % 45 % 1017,6 hPa 0,0 l/m 5,3 km/h (1 Bft) SW 225 0 min 0,0 UV-I 6,4 C 10,3 C 7,6 km/h (2 Bft)
05.06.2012 10:30 8,7 C 17,9 C 9,8 C 9,6 C 9,6 C 0,9 C 86 % 96 % 24 % 1017,6 hPa 0,0 l/m 6,0 km/h (2 Bft) S 180 0 min 0,0 UV-I 6,5 C 9,0 C 10,9 km/h (2 Bft)
05.06.2012 10:35 8,5 C 17,9 C 9,9 C 8,8 C 8,8 C 0,3 C 85 % 96 % 8 % 1017,6 hPa 0,0 l/m 6,8 km/h (2 Bft) W-SW 247 0 min 0,0 UV-I 6,1 C 7,9 C 7,9 km/h (2 Bft)
05.06.2012 10:40 8,4 C 17,9 C 9,9 C 8,7 C 8,7 C 0,3 C 85 % 96 % 8 % 1017,6 hPa 0,0 l/m 6,3 km/h (2 Bft) SW 225 0 min 0,0 UV-I 6,0 C 7,9 C 3,9 km/h (1 Bft)
05.06.2012 10:45 8,4 C 17,9 C 9,9 C 8,9 C 8,9 C 0,5 C 85 % 96 % 13 % 1017,9 hPa 0,0 l/m 5,8 km/h (2 Bft) W 270 0 min 0,0 UV-I 6,0 C 8,3 C 8,7 km/h (2 Bft)
05.06.2012 10:50 8,5 C 17,9 C 9,9 C 9,2 C 9,2 C 0,7 C 85 % 96 % 18 % 1017,9 hPa 0,0 l/m 6,0 km/h (2 Bft) W 270 0 min 0,0 UV-I 6,1 C 8,6 C 6,4 km/h (2 Bft)
05.06.2012 10:55 8,6 C 17,9 C 10,0 C 10,4 C 10,4 C 1,8 C 85 % 96 % 47 % 1017,9 hPa 0,0 l/m 4,7 km/h (1 Bft) W-NW 292 0 min 0,0 UV-I 6,2 C 10,4 C 5,6 km/h (1 Bft)
05.06.2012 11:00 8,8 C 17,9 C 10,0 C 10,9 C 10,9 C 2,1 C 85 % 96 % 55 % 1017,9 hPa 0,0 l/m 3,7 km/h (1 Bft) SW 225 0 min 0,0 UV-I 6,4 C 10,9 C 7,2 km/h (2 Bft)
05.06.2012 11:11 8,9 C 17,9 C 10,0 C 10,0 C 10,0 C 1,1 C 84 % 96 % 29 % 1018,1 hPa 0,0 l/m 5,1 km/h (1 Bft) N 0 0 min 0,0 UV-I 6,3 C 9,7 C 9,7 km/h (2 Bft)
05.06.2012 11:20 8,9 C 17,8 C 10,1 C 9,7 C 9,7 C 0,8 C 83 % 96 % 21 % 1018,1 hPa 0,0 l/m 5,0 km/h (1 Bft) W-SW 247 0 min 0,0 UV-I 6,2 C 9,4 C 7,6 km/h (2 Bft)
05.06.2012 11:25 9,0 C 17,8 C 10,3 C 10,4 C 10,4 C 1,4 C 84 % 95 % 37 % 1018,2 hPa 0,0 l/m 4,2 km/h (1 Bft) S 180 0 min 0,0 UV-I 6,4 C 10,4 C 5,3 km/h (1 Bft)
05.06.2012 11:30 9,1 C 17,8 C 10,2 C 10,9 C 10,9 C 1,8 C 84 % 96 % 47 % 1018,2 hPa 0,0 l/m 4,2 km/h (1 Bft) SW 225 0 min 0,0 UV-I 6,5 C 10,9 C 6,0 km/h (2 Bft)
05.06.2012 11:35 9,3 C 17,8 C 10,3 C 11,6 C 11,6 C 2,3 C 83 % 95 % 61 % 1018,2 hPa 0,0 l/m 5,1 km/h (1 Bft) S-SW 202 0 min 0,0 UV-I 6,6 C 11,6 C 7,2 km/h (2 Bft)
05.06.2012 11:40 9,5 C 17,8 C 10,3 C 11,6 C 11,6 C 2,1 C 82 % 95 % 55 % 1018,2 hPa 0,0 l/m 5,5 km/h (1 Bft) S 180 0 min 0,0 UV-I 6,6 C 11,6 C 4,2 km/h (1 Bft)
05.06.2012 11:45 9,5 C 17,8 C 10,3 C 11,5 C 11,5 C 2,0 C 81 % 95 % 53 % 1018,4 hPa 0,0 l/m 5,3 km/h (1 Bft) W-SW 247 0 min 0,0 UV-I 6,4 C 11,5 C 4,5 km/h (1 Bft)
05.06.2012 11:50 9,5 C 17,8 C 10,2 C 11,2 C 11,2 C 1,7 C 80 % 95 % 45 % 1018,4 hPa 0,0 l/m 4,8 km/h (1 Bft) W-SW 247 0 min 0,0 UV-I 6,2 C 11,2 C 6,1 km/h (2 Bft)
05.06.2012 11:55 9,5 C 17,8 C 10,3 C 10,7 C 10,7 C 1,2 C 81 % 95 % 32 % 1018,4 hPa 0,0 l/m 4,8 km/h (1 Bft) W 270 0 min 0,0 UV-I 6,4 C 10,7 C 9,3 km/h (2 Bft)
05.06.2012 12:00 9,5 C 17,8 C 10,3 C 10,8 C 10,8 C 1,3 C 81 % 95 % 34 % 1018,4 hPa 0,0 l/m 4,2 km/h (1 Bft) S-SW 202 0 min 0,0 UV-I 6,4 C 10,8 C 2,6 km/h (1 Bft)
05.06.2012 12:11 9,5 C 17,7 C 10,5 C 10,8 C 10,8 C 1,3 C 82 % 95 % 34 % 1018,5 hPa 0,0 l/m 4,7 km/h (1 Bft) N 0 0 min 0,0 UV-I 6,6 C 10,8 C 8,2 km/h (2 Bft)
05.06.2012 12:20 9,5 C 17,7 C 10,3 C 10,6 C 10,6 C 1,1 C 82 % 95 % 29 % 1018,5 hPa 0,0 l/m 5,6 km/h (1 Bft) S 180 0 min 0,0 UV-I 6,6 C 10,6 C 11,4 km/h (2 Bft)
05.06.2012 12:25 9,7 C 17,7 C 10,4 C 11,2 C 11,2 C 1,5 C 78 % 95 % 39 % 1018,8 hPa 0,0 l/m 5,6 km/h (1 Bft) S-SW 202 0 min 0,0 UV-I 6,1 C 11,2 C 4,7 km/h (1 Bft)
05.06.2012 12:30 9,9 C 17,7 C 10,5 C 11,9 C 11,9 C 2,0 C 77 % 95 % 53 % 1018,8 hPa 0,0 l/m 5,3 km/h (1 Bft) W-SW 247 0 min 0,0 UV-I 6,1 C 11,9 C 6,3 km/h (2 Bft)
05.06.2012 12:35 10,1 C 17,7 C 10,5 C 12,7 C 12,7 C 2,6 C 77 % 95 % 68 % 1018,8 hPa 0,0 l/m 5,1 km/h (1 Bft) S-SO 157 0 min 0,0 UV-I 6,3 C 12,7 C 4,8 km/h (1 Bft)
05.06.2012 12:40 10,3 C 17,7 C 10,6 C 13,5 C 13,5 C 3,2 C 77 % 95 % 84 % 1018,8 hPa 0,0 l/m 4,8 km/h (1 Bft) W-SW 247 0 min 0,0 UV-I 6,4 C 13,5 C 5,5 km/h (1 Bft)
05.06.2012 12:45 10,7 C 17,6 C 10,7 C 13,7 C 13,7 C 3,0 C 75 % 95 % 79 % 1018,9 hPa 0,0 l/m 6,3 km/h (2 Bft) W-SW 247 0 min 0,0 UV-I 6,5 C 13,7 C 8,0 km/h (2 Bft)
05.06.2012 12:50 10,7 C 17,6 C 10,7 C 13,3 C 13,3 C 2,6 C 75 % 95 % 68 % 1018,9 hPa 0,0 l/m 6,8 km/h (2 Bft) W 270 0 min 0,0 UV-I 6,5 C 13,3 C 5,3 km/h (1 Bft)
05.06.2012 12:55 10,8 C 17,6 C 10,8 C 13,4 C 13,4 C 2,6 C 73 % 96 % 68 % 1018,9 hPa 0,0 l/m 5,8 km/h (2 Bft) S-SO 157 0 min 0,0 UV-I 6,2 C 13,4 C 3,4 km/h (1 Bft)
05.06.2012 13:00 10,9 C 17,6 C 10,8 C 13,8 C 13,8 C 2,9 C 71 % 96 % 76 % 1018,9 hPa 0,0 l/m 6,0 km/h (2 Bft) S-SW 202 0 min 0,0 UV-I 5,9 C 13,8 C 11,4 km/h (2 Bft)
05.06.2012 13:15 11,5 C 17,6 C 11,1 C 14,9 C 14,9 C 3,4 C 72 % 95 % 89 % 1019,2 hPa 0,0 l/m 5,0 km/h (1 Bft) SO 135 15 min 0,0 UV-I 6,6 C 14,9 C 6,8 km/h (2 Bft)
05.06.2012 13:25 11,9 C 17,6 C 11,2 C 16,1 C 16,1 C 4,2 C 70 % 95 % 100 % 1019,4 hPa 0,0 l/m 6,4 km/h (2 Bft) SW 225 10 min 0,0 UV-I 6,6 C 16,1 C 6,9 km/h (2 Bft)
05.06.2012 13:30 11,9 C 17,6 C 11,2 C 15,2 C 15,2 C 3,3 C 69 % 95 % 87 % 1019,4 hPa 0,0 l/m 6,8 km/h (2 Bft) SW 225 5 min 0,0 UV-I 6,4 C 15,2 C 13,0 km/h (3 Bft)
05.06.2012 13:35 11,4 C 17,6 C 11,0 C 13,7 C 12,8 C 2,3 C 69 % 95 % 61 % 1019,4 hPa 0,0 l/m 8,0 km/h (2 Bft) W-SW 247 0 min 0,0 UV-I 5,9 C 12,8 C 7,9 km/h (2 Bft)
05.06.2012 13:40 11,1 C 17,6 C 10,9 C 12,4 C 11,8 C 1,3 C 70 % 95 % 34 % 1019,4 hPa 0,0 l/m 8,5 km/h (2 Bft) W 270 0 min 0,0 UV-I 5,8 C 11,8 C 18,0 km/h (3 Bft)
05.06.2012 13:45 10,9 C 17,5 C 11,1 C 11,6 C 11,6 C 0,7 C 71 % 95 % 18 % 1019,6 hPa 0,0 l/m 6,6 km/h (2 Bft) SW 225 0 min 0,0 UV-I 5,9 C 11,6 C 7,2 km/h (2 Bft)
05.06.2012 13:50 10,9 C 17,5 C 11,1 C 11,8 C 11,8 C 0,9 C 71 % 95 % 24 % 1019,6 hPa 0,0 l/m 6,0 km/h (2 Bft) W 270 0 min 0,0 UV-I 5,9 C 11,8 C 5,1 km/h (1 Bft)
05.06.2012 13:55 10,7 C 17,5 C 10,9 C 11,4 C 11,4 C 0,7 C 70 % 95 % 18 % 1019,6 hPa 0,0 l/m 6,9 km/h (2 Bft) SW 225 0 min 0,0 UV-I 5,5 C 11,4 C 10,3 km/h (2 Bft)
05.06.2012 14:00 10,6 C 17,5 C 10,9 C 11,5 C 11,5 C 0,9 C 70 % 95 % 24 % 1019,6 hPa 0,0 l/m 7,2 km/h (2 Bft) SW 225 0 min 0,0 UV-I 5,4 C 11,5 C 5,5 km/h (1 Bft)
05.06.2012 14:11 11,5 C 17,5 C 11,2 C 14,4 C 14,4 C 2,9 C 67 % 95 % 76 % 1019,7 hPa 0,0 l/m 7,6 km/h (2 Bft) N 0 0 min 0,0 UV-I 5,6 C 14,4 C 9,3 km/h (2 Bft)
05.06.2012 14:20 11,6 C 17,6 C 11,4 C 15,2 C 15,2 C 3,6 C 69 % 95 % 95 % 1019,7 hPa 0,0 l/m 6,3 km/h (2 Bft) NO 45 9 min 0,0 UV-I 6,1 C 15,2 C 3,1 km/h (1 Bft)
05.06.2012 14:25 12,0 C 17,6 C 11,5 C 16,0 C 16,0 C 4,0 C 68 % 95 % 100 % 1019,5 hPa 0,0 l/m 4,5 km/h (1 Bft) S-SO 157 5 min 0,0 UV-I 6,3 C 16,0 C 4,5 km/h (1 Bft)
05.06.2012 14:30 12,0 C 17,6 C 11,5 C 15,9 C 15,9 C 3,9 C 67 % 94 % 100 % 1019,5 hPa 0,0 l/m 5,5 km/h (1 Bft) O-NO 67 5 min 0,0 UV-I 6,1 C 15,9 C 5,1 km/h (1 Bft)
05.06.2012 14:35 12,3 C 17,6 C 11,7 C 16,2 C 16,2 C 3,9 C 65 % 94 % 100 % 1019,5 hPa 0,0 l/m 7,4 km/h (2 Bft) SW 225 5 min 0,0 UV-I 5,9 C 16,2 C 12,7 km/h (3 Bft)
05.06.2012 14:40 12,3 C 17,6 C 11,7 C 16,2 C 16,2 C 3,9 C 64 % 94 % 100 % 1019,5 hPa 0,0 l/m 7,9 km/h (2 Bft) W 270 5 min 0,0 UV-I 5,7 C 16,2 C 4,2 km/h (1 Bft)
05.06.2012 14:45 12,2 C 17,6 C 11,7 C 15,9 C 15,9 C 3,7 C 65 % 94 % 97 % 1019,4 hPa 0,0 l/m 6,8 km/h (2 Bft) NW 315 5 min 0,0 UV-I 5,8 C 15,9 C 8,4 km/h (2 Bft)
05.06.2012 14:50 12,5 C 17,6 C 11,9 C 16,3 C 16,3 C 3,8 C 65 % 94 % 100 % 1019,4 hPa 0,0 l/m 6,0 km/h (2 Bft) SO 135 5 min 0,0 UV-I 6,1 C 16,3 C 3,4 km/h (1 Bft)
05.06.2012 14:55 12,7 C 17,6 C 11,9 C 16,5 C 16,5 C 3,8 C 65 % 94 % 100 % 1019,4 hPa 0,0 l/m 5,1 km/h (1 Bft) SW 225 5 min 0,0 UV-I 6,3 C 16,5 C 7,1 km/h (2 Bft)
05.06.2012 15:00 12,7 C 17,6 C 11,9 C 16,5 C 16,5 C 3,8 C 64 % 94 % 100 % 1019,4 hPa 0,0 l/m 5,6 km/h (1 Bft) S-SW 202 5 min 0,0 UV-I 6,1 C 16,5 C 7,1 km/h (2 Bft)
05.06.2012 15:11 12,3 C 17,5 C 11,9 C 15,2 C 15,2 C 2,9 C 62 % 93 % 76 % 1019,9 hPa 0,0 l/m 5,1 km/h (1 Bft) N 0 0 min 0,0 UV-I 5,2 C 15,2 C 11,1 km/h (2 Bft)
05.06.2012 15:20 12,1 C 17,5 C 11,7 C 14,6 C 14,6 C 2,5 C 62 % 93 % 66 % 1019,9 hPa 0,0 l/m 5,6 km/h (1 Bft) W 270 0 min 0,0 UV-I 5,0 C 14,6 C 12,9 km/h (3 Bft)
05.06.2012 15:25 11,9 C 17,5 C 11,7 C 13,9 C 13,9 C 2,0 C 63 % 93 % 53 % 1019,7 hPa 0,0 l/m 6,0 km/h (2 Bft) W-SW 247 0 min 0,0 UV-I 5,1 C 13,9 C 4,3 km/h (1 Bft)
05.06.2012 15:30 11,9 C 17,5 C 11,7 C 13,8 C 13,8 C 1,9 C 63 % 93 % 50 % 1019,7 hPa 0,0 l/m 5,5 km/h (1 Bft) SW 225 0 min 0,0 UV-I 5,1 C 13,8 C 5,8 km/h (2 Bft)
05.06.2012 15:35 11,9 C 17,5 C 11,7 C 13,8 C 13,8 C 1,9 C 65 % 93 % 50 % 1019,7 hPa 0,0 l/m 4,7 km/h (1 Bft) W-SW 247 0 min 0,0 UV-I 5,5 C 13,8 C 4,5 km/h (1 Bft)
05.06.2012 15:40 11,9 C 17,5 C 11,7 C 13,9 C 13,9 C 2,0 C 65 % 92 % 53 % 1019,7 hPa 0,0 l/m 5,1 km/h (1 Bft) W 270 0 min 0,0 UV-I 5,5 C 13,9 C 4,7 km/h (1 Bft)
05.06.2012 15:45 12,1 C 17,6 C 11,8 C 14,2 C 14,2 C 2,1 C 65 % 92 % 55 % 1019,6 hPa 0,0 l/m 5,6 km/h (1 Bft) W-SW 247 0 min 0,0 UV-I 5,7 C 14,2 C 5,6 km/h (1 Bft)
05.06.2012 15:50 12,1 C 17,6 C 11,9 C 14,4 C 14,4 C 2,3 C 65 % 92 % 61 % 1019,6 hPa 0,0 l/m 5,6 km/h (1 Bft) W-SW 247 0 min 0,0 UV-I 5,7 C 14,4 C 4,5 km/h (1 Bft)
05.06.2012 15:55 12,2 C 17,6 C 11,8 C 14,6 C 14,6 C 2,4 C 61 % 92 % 63 % 1019,6 hPa 0,0 l/m 7,1 km/h (2 Bft) W-SW 247 0 min 0,0 UV-I 4,9 C 14,6 C 7,7 km/h (2 Bft)
05.06.2012 16:00 12,2 C 17,6 C 11,9 C 14,7 C 14,7 C 2,5 C 61 % 92 % 66 % 1019,6 hPa 0,0 l/m 7,4 km/h (2 Bft) S-SW 202 0 min 0,0 UV-I 4,9 C 14,7 C 4,7 km/h (1 Bft)
05.06.2012 16:12 12,1 C 17,6 C 11,8 C 13,7 C 13,7 C 1,6 C 61 % 91 % 42 % 1019,8 hPa 0,0 l/m 6,1 km/h (2 Bft) N 0 0 min 0,0 UV-I 4,8 C 13,7 C 9,0 km/h (2 Bft)
05.06.2012 16:20 11,9 C 17,6 C 11,7 C 13,4 C 13,4 C 1,5 C 62 % 91 % 39 % 1019,8 hPa 0,0 l/m 5,8 km/h (2 Bft) S-SW 202 0 min 0,0 UV-I 4,9 C 13,4 C 4,7 km/h (1 Bft)
05.06.2012 16:25 11,8 C 17,6 C 11,9 C 13,6 C 13,6 C 1,8 C 64 % 90 % 47 % 1019,9 hPa 0,0 l/m 4,7 km/h (1 Bft) S 180 0 min 0,0 UV-I 5,2 C 13,6 C 9,8 km/h (2 Bft)
05.06.2012 16:30 12,0 C 17,6 C 11,9 C 14,1 C 14,1 C 2,1 C 64 % 90 % 55 % 1019,9 hPa 0,0 l/m 4,7 km/h (1 Bft) S 180 0 min 0,0 UV-I 5,4 C 14,1 C 10,0 km/h (2 Bft)
05.06.2012 16:35 12,5 C 17,6 C 12,0 C 15,5 C 15,5 C 3,0 C 63 % 90 % 79 % 1019,9 hPa 0,0 l/m 4,8 km/h (1 Bft) SW 225 0 min 0,0 UV-I 5,7 C 15,5 C 6,1 km/h (2 Bft)
05.06.2012 16:40 12,6 C 17,6 C 12,0 C 15,5 C 15,5 C 2,9 C 61 % 90 % 76 % 1019,9 hPa 0,0 l/m 4,7 km/h (1 Bft) S-SW 202 0 min 0,0 UV-I 5,3 C 15,5 C 8,2 km/h (2 Bft)
05.06.2012 16:45 12,5 C 17,6 C 11,9 C 15,1 C 15,1 C 2,6 C 60 % 90 % 68 % 1019,4 hPa 0,0 l/m 5,8 km/h (2 Bft) SW 225 0 min 0,0 UV-I 5,0 C 15,1 C 7,4 km/h (2 Bft)
05.06.2012 16:50 12,5 C 17,6 C 12,0 C 14,7 C 14,7 C 2,2 C 60 % 90 % 58 % 1019,4 hPa 0,0 l/m 7,1 km/h (2 Bft) SW 225 0 min 0,0 UV-I 5,0 C 14,7 C 6,9 km/h (2 Bft)
05.06.2012 16:55 12,3 C 17,6 C 12,0 C 14,3 C 14,3 C 2,0 C 62 % 90 % 53 % 1019,4 hPa 0,0 l/m 6,8 km/h (2 Bft) S-SW 202 0 min 0,0 UV-I 5,2 C 14,3 C 9,8 km/h (2 Bft)
05.06.2012 17:00 12,3 C 17,6 C 11,9 C 14,2 C 14,2 C 1,9 C 62 % 89 % 50 % 1019,4 hPa 0,0 l/m 6,6 km/h (2 Bft) W-SW 247 0 min 0,0 UV-I 5,2 C 14,2 C 10,3 km/h (2 Bft)
05.06.2012 17:12 12,2 C 17,6 C 12,0 C 14,1 C 14,1 C 1,9 C 64 % 90 % 50 % 1019,6 hPa 0,0 l/m 6,1 km/h (2 Bft) N 0 0 min 0,0 UV-I 5,6 C 14,1 C 6,0 km/h (2 Bft)
05.06.2012 17:20 12,3 C 17,6 C 12,0 C 14,1 C 14,1 C 1,8 C 64 % 90 % 47 % 1019,6 hPa 0,0 l/m 5,3 km/h (1 Bft) S-SW 202 0 min 0,0 UV-I 5,7 C 14,1 C 6,1 km/h (2 Bft)
05.06.2012 17:25 12,3 C 17,6 C 12,1 C 14,4 C 14,4 C 2,1 C 64 % 90 % 55 % 1019,6 hPa 0,0 l/m 4,3 km/h (1 Bft) W-SW 247 0 min 0,0 UV-I 5,7 C 14,4 C 6,1 km/h (2 Bft)
05.06.2012 17:30 12,4 C 17,6 C 12,0 C 14,7 C 14,7 C 2,3 C 64 % 90 % 61 % 1019,6 hPa 0,0 l/m 3,7 km/h (1 Bft) SW 225 0 min 0,0 UV-I 5,8 C 14,7 C 4,2 km/h (1 Bft)
05.06.2012 17:35 12,8 C 17,6 C 12,1 C 15,7 C 15,7 C 2,9 C 62 % 90 % 76 % 1019,6 hPa 0,0 l/m 4,0 km/h (1 Bft) SW 225 0 min 0,0 UV-I 5,7 C 15,7 C 5,0 km/h (1 Bft)
05.06.2012 17:40 12,8 C 17,6 C 12,1 C 15,4 C 15,4 C 2,6 C 62 % 91 % 68 % 1019,6 hPa 0,0 l/m 4,0 km/h (1 Bft) S 180 0 min 0,0 UV-I 5,7 C 15,4 C 3,4 km/h (1 Bft)
05.06.2012 17:45 12,7 C 17,6 C 12,1 C 14,7 C 14,7 C 2,0 C 61 % 90 % 53 % 1019,8 hPa 0,0 l/m 4,2 km/h (1 Bft) SW 225 0 min 0,0 UV-I 5,4 C 14,7 C 5,1 km/h (1 Bft)
05.06.2012 17:50 12,5 C 17,6 C 12,0 C 14,2 C 14,2 C 1,7 C 61 % 90 % 45 % 1019,8 hPa 0,0 l/m 5,0 km/h (1 Bft) S 180 0 min 0,0 UV-I 5,2 C 14,2 C 3,9 km/h (1 Bft)
05.06.2012 17:55 12,5 C 17,6 C 12,0 C 13,7 C 13,7 C 1,2 C 61 % 90 % 32 % 1019,8 hPa 0,0 l/m 5,5 km/h (1 Bft) W 270 0 min 0,0 UV-I 5,2 C 13,7 C 6,9 km/h (2 Bft)
05.06.2012 18:00 12,3 C 17,6 C 12,0 C 13,6 C 13,6 C 1,3 C 61 % 90 % 34 % 1019,8 hPa 0,0 l/m 5,3 km/h (1 Bft) W-SW 247 0 min 0,0 UV-I 5,0 C 13,6 C 7,7 km/h (2 Bft)
05.06.2012 18:11 12,2 C 17,6 C 12,0 C 13,5 C 13,5 C 1,3 C 63 % 90 % 34 % 1019,7 hPa 0,0 l/m 3,7 km/h (1 Bft) N 0 0 min 0,0 UV-I 5,4 C 13,5 C 1,9 km/h (1 Bft)
05.06.2012 18:20 12,3 C 17,6 C 12,0 C 13,5 C 13,5 C 1,2 C 63 % 90 % 32 % 1019,7 hPa 0,0 l/m 2,6 km/h (1 Bft) SW 225 0 min 0,0 UV-I 5,5 C 13,5 C 1,6 km/h (1 Bft)
05.06.2012 18:25 12,3 C 17,6 C 12,0 C 13,5 C 13,5 C 1,2 C 63 % 90 % 32 % 1020,1 hPa 0,0 l/m 2,3 km/h (1 Bft) W-SW 247 0 min 0,0 UV-I 5,5 C 13,5 C 2,9 km/h (1 Bft)
05.06.2012 18:30 12,3 C 17,6 C 12,0 C 13,5 C 13,5 C 1,2 C 64 % 90 % 32 % 1020,1 hPa 0,0 l/m 2,1 km/h (1 Bft) S-SO 157 0 min 0,0 UV-I 5,7 C 13,5 C 0,0 km/h (0 Bft)
05.06.2012 18:35 12,3 C 17,6 C 11,9 C 13,5 C 13,5 C 1,2 C 64 % 91 % 32 % 1020,1 hPa 0,0 l/m 1,8 km/h (1 Bft) W 270 0 min 0,0 UV-I 5,7 C 13,5 C 2,7 km/h (1 Bft)
05.06.2012 18:40 12,3 C 17,6 C 12,0 C 13,4 C 13,4 C 1,1 C 63 % 91 % 29 % 1020,1 hPa 0,0 l/m 2,4 km/h (1 Bft) S-SO 157 0 min 0,0 UV-I 5,5 C 13,4 C 5,1 km/h (1 Bft)
05.06.2012 18:45 12,2 C 17,6 C 11,9 C 13,3 C 13,3 C 1,1 C 64 % 91 % 29 % 1019,8 hPa 0,0 l/m 3,1 km/h (1 Bft) W-SW 247 0 min 0,0 UV-I 5,6 C 13,3 C 4,2 km/h (1 Bft)
05.06.2012 18:50 12,2 C 17,6 C 12,0 C 13,3 C 13,3 C 1,1 C 64 % 91 % 29 % 1019,8 hPa 0,0 l/m 2,9 km/h (1 Bft) SW 225 0 min 0,0 UV-I 5,6 C 13,3 C 6,1 km/h (2 Bft)
05.06.2012 18:55 12,1 C 17,6 C 11,9 C 13,2 C 13,2 C 1,1 C 64 % 91 % 29 % 1019,8 hPa 0,0 l/m 3,1 km/h (1 Bft) SW 225 0 min 0,0 UV-I 5,5 C 13,2 C 2,6 km/h (1 Bft)
05.06.2012 19:00 12,1 C 17,6 C 12,0 C 13,3 C 13,3 C 1,2 C 65 % 91 % 32 % 1019,8 hPa 0,0 l/m 2,7 km/h (1 Bft) W 270 0 min 0,0 UV-I 5,7 C 13,3 C 1,6 km/h (1 Bft)
05.06.2012 19:06 12,2 C 17,6 C 12,0 C 13,3 C 13,3 C 1,1 C 65 % 91 % 29 % 1019,8 hPa 0,0 l/m 1,6 km/h (1 Bft) N 0 0 min 0,0 UV-I 5,8 C 13,3 C 2,4 km/h (1 Bft)
05.06.2012 19:20 12,3 C 17,6 C 12,0 C 13,3 C 13,3 C 1,0 C 65 % 91 % 26 % 1019,8 hPa 0,0 l/m 2,4 km/h (1 Bft) S 180 0 min 0,0 UV-I 5,9 C 13,3 C 1,9 km/h (1 Bft)
05.06.2012 19:25 12,2 C 17,6 C 12,0 C 13,0 C 13,0 C 0,8 C 65 % 91 % 21 % 1019,7 hPa 0,0 l/m 2,7 km/h (1 Bft) SW 225 0 min 0,0 UV-I 5,8 C 13,0 C 3,9 km/h (1 Bft)
05.06.2012 19:30 12,3 C 17,6 C 12,0 C 12,9 C 12,9 C 0,6 C 66 % 91 % 16 % 1019,7 hPa 0,0 l/m 2,1 km/h (1 Bft) W 270 0 min 0,0 UV-I 6,1 C 12,9 C 2,4 km/h (1 Bft)
05.06.2012 19:35 12,2 C 17,6 C 11,9 C 12,7 C 12,7 C 0,5 C 66 % 91 % 13 % 1019,7 hPa 0,0 l/m 1,8 km/h (1 Bft) SW 225 0 min 0,0 UV-I 6,0 C 12,7 C 1,6 km/h (1 Bft)
05.06.2012 19:40 12,1 C 17,6 C 12,0 C 12,7 C 12,7 C 0,6 C 65 % 91 % 16 % 1019,7 hPa 0,0 l/m 1,8 km/h (1 Bft) SW 225 0 min 0,0 UV-I 5,7 C 12,7 C 3,4 km/h (1 Bft)
05.06.2012 19:45 12,0 C 17,6 C 11,9 C 12,4 C 12,4 C 0,4 C 66 % 91 % 11 % 1019,8 hPa 0,0 l/m 2,1 km/h (1 Bft) W 270 0 min 0,0 UV-I 5,8 C 12,4 C 1,8 km/h (1 Bft)
05.06.2012 19:50 12,1 C 17,7 C 11,9 C 12,4 C 12,4 C 0,3 C 67 % 91 % 8 % 1019,8 hPa 0,0 l/m 1,6 km/h (1 Bft) W-SW 247 0 min 0,0 UV-I 6,2 C 12,4 C 0,0 km/h (0 Bft)
05.06.2012 19:55 12,1 C 17,7 C 11,9 C 12,3 C 12,3 C 0,2 C 67 % 91 % 5 % 1019,8 hPa 0,0 l/m 0,5 km/h (0 Bft) S-SW 202 0 min 0,0 UV-I 6,2 C 12,3 C 0,0 km/h (0 Bft)
05.06.2012 20:00 12,1 C 17,7 C 11,9 C 12,2 C 12,2 C 0,1 C 68 % 91 % 3 % 1019,8 hPa 0,0 l/m 0,2 km/h (0 Bft) SW 225 0 min 0,0 UV-I 6,4 C 12,2 C 0,0 km/h (0 Bft)
05.06.2012 20:11 12,0 C 17,7 C 11,9 C 12,0 C 12,0 C 0,0 C 70 % 92 % 0 % 1019,6 hPa 0,0 l/m 0,3 km/h (0 Bft) N 0 0 min 0,0 UV-I 6,7 C 12,0 C 0,0 km/h (0 Bft)
05.06.2012 20:20 11,9 C 17,7 C 11,8 C 12,0 C 12,0 C 0,1 C 70 % 92 % 3 % 1019,6 hPa 0,0 l/m 0,3 km/h (0 Bft) SW 225 0 min 0,0 UV-I 6,6 C 12,0 C 0,0 km/h (0 Bft)
05.06.2012 20:25 11,9 C 17,7 C 11,9 C 11,9 C 11,8 C 0,0 C 70 % 92 % 0 % 1019,7 hPa 0,0 l/m 0,2 km/h (0 Bft) W-SW 247 0 min 0,0 UV-I 6,6 C 11,8 C 0,0 km/h (0 Bft)
05.06.2012 20:30 11,9 C 17,7 C 11,9 C 11,9 C 11,8 C 0,0 C 70 % 92 % 0 % 1019,7 hPa 0,0 l/m 0,2 km/h (0 Bft) SW 225 0 min 0,0 UV-I 6,6 C 11,8 C 0,0 km/h (0 Bft)
05.06.2012 20:35 11,9 C 17,7 C 11,9 C 11,8 C 11,6 C 0,0 C 71 % 92 % 0 % 1019,7 hPa 0,0 l/m 0,2 km/h (0 Bft) S-SO 157 0 min 0,0 UV-I 6,8 C 11,6 C 0,0 km/h (0 Bft)
05.06.2012 20:40 11,7 C 17,7 C 11,9 C 11,6 C 11,5 C 0,0 C 71 % 92 % 0 % 1019,7 hPa 0,0 l/m 0,2 km/h (0 Bft) W-SW 247 0 min 0,0 UV-I 6,6 C 11,5 C 0,0 km/h (0 Bft)
05.06.2012 20:45 11,6 C 17,7 C 11,9 C 11,5 C 11,4 C 0,0 C 71 % 92 % 0 % 1019,8 hPa 0,0 l/m 0,2 km/h (0 Bft) W-NW 292 0 min 0,0 UV-I 6,5 C 11,4 C 0,0 km/h (0 Bft)
05.06.2012 20:50 11,6 C 17,7 C 11,9 C 11,5 C 11,3 C 0,0 C 72 % 92 % 0 % 1019,8 hPa 0,0 l/m 0,2 km/h (0 Bft) W-NW 292 0 min 0,0 UV-I 6,7 C 11,3 C 0,0 km/h (0 Bft)
05.06.2012 20:55 11,5 C 17,7 C 11,7 C 11,4 C 11,2 C 0,0 C 73 % 92 % 0 % 1019,8 hPa 0,0 l/m 0,0 km/h (0 Bft) W-NW 292 0 min 0,0 UV-I 6,8 C 11,2 C 0,0 km/h (0 Bft)
05.06.2012 21:00 11,5 C 17,7 C 11,7 C 11,3 C 11,0 C 0,0 C 74 % 92 % 0 % 1019,8 hPa 0,0 l/m 0,0 km/h (0 Bft) W-NW 292 0 min 0,0 UV-I 7,0 C 11,0 C 0,0 km/h (0 Bft)
05.06.2012 21:11 11,1 C 17,8 C 11,6 C 10,9 C 10,6 C 0,0 C 75 % 92 % 0 % 1020,0 hPa 0,0 l/m 0,2 km/h (0 Bft) N 0 0 min 0,0 UV-I 6,8 C 10,6 C 0,0 km/h (0 Bft)
05.06.2012 21:20 11,1 C 17,8 C 11,7 C 10,9 C 10,5 C 0,0 C 75 % 92 % 0 % 1020,0 hPa 0,0 l/m 0,0 km/h (0 Bft) NW 315 0 min 0,0 UV-I 6,8 C 10,5 C 0,0 km/h (0 Bft)
05.06.2012 21:25 10,9 C 17,8 C 11,7 C 10,7 C 10,3 C 0,0 C 76 % 92 % 0 % 1019,6 hPa 0,0 l/m 0,0 km/h (0 Bft) NW 315 0 min 0,0 UV-I 6,8 C 10,3 C 0,0 km/h (0 Bft)
05.06.2012 21:30 10,8 C 17,8 C 11,7 C 10,6 C 10,3 C 0,0 C 77 % 92 % 0 % 1019,6 hPa 0,0 l/m 0,0 km/h (0 Bft) NW 315 0 min 0,0 UV-I 6,9 C 10,3 C 0,0 km/h (0 Bft)
05.06.2012 21:35 10,8 C 17,8 C 11,7 C 10,6 C 10,2 C 0,0 C 77 % 92 % 0 % 1019,6 hPa 0,0 l/m 0,0 km/h (0 Bft) NW 315 0 min 0,0 UV-I 6,9 C 10,2 C 0,0 km/h (0 Bft)
05.06.2012 21:40 10,6 C 17,8 C 11,7 C 10,4 C 10,1 C 0,0 C 77 % 92 % 0 % 1019,6 hPa 0,0 l/m 0,0 km/h (0 Bft) NW 315 0 min 0,0 UV-I 6,7 C 10,1 C 0,0 km/h (0 Bft)
05.06.2012 21:45 10,7 C 17,8 C 11,5 C 10,5 C 10,1 C 0,0 C 78 % 92 % 0 % 1019,7 hPa 0,0 l/m 0,0 km/h (0 Bft) NW 315 0 min 0,0 UV-I 7,0 C 10,1 C 0,0 km/h (0 Bft)
05.06.2012 21:50 10,7 C 17,8 C 11,5 C 10,5 C 10,1 C 0,0 C 79 % 92 % 0 % 1019,7 hPa 0,0 l/m 0,0 km/h (0 Bft) NW 315 0 min 0,0 UV-I 7,2 C 10,1 C 0,0 km/h (0 Bft)
05.06.2012 21:55 10,6 C 17,8 C 11,5 C 10,4 C 10,0 C 0,0 C 79 % 92 % 0 % 1019,7 hPa 0,0 l/m 0,0 km/h (0 Bft) W-SW 247 0 min 0,0 UV-I 7,1 C 10,0 C 0,0 km/h (0 Bft)
05.06.2012 22:00 10,5 C 17,9 C 11,5 C 10,3 C 10,0 C 0,0 C 79 % 92 % 0 % 1019,7 hPa 0,0 l/m 0,0 km/h (0 Bft) NW 315 0 min 0,0 UV-I 7,0 C 10,0 C 0,0 km/h (0 Bft)
05.06.2012 22:11 10,4 C 18,0 C 11,5 C 10,2 C 9,8 C 0,0 C 81 % 93 % 0 % 1019,8 hPa 0,0 l/m 0,2 km/h (0 Bft) N 0 0 min 0,0 UV-I 7,3 C 9,8 C 0,0 km/h (0 Bft)
05.06.2012 22:25 10,3 C 18,0 C 11,5 C 10,1 C 9,7 C 0,0 C 81 % 93 % 0 % 1020,1 hPa 0,0 l/m 0,0 km/h (0 Bft) W-NW 292 0 min 0,0 UV-I 7,2 C 9,7 C 0,0 km/h (0 Bft)
05.06.2012 22:30 10,3 C 18,0 C 11,5 C 10,1 C 9,7 C 0,0 C 82 % 93 % 0 % 1020,1 hPa 0,0 l/m 0,0 km/h (0 Bft) S 180 0 min 0,0 UV-I 7,4 C 9,7 C 0,0 km/h (0 Bft)
05.06.2012 22:35 10,1 C 18,0 C 11,5 C 10,0 C 9,7 C 0,0 C 82 % 93 % 0 % 1020,1 hPa 0,0 l/m 0,0 km/h (0 Bft) S 180 0 min 0,0 UV-I 7,2 C 9,7 C 0,0 km/h (0 Bft)
05.06.2012 22:40 10,1 C 18,0 C 11,4 C 10,0 C 9,7 C 0,0 C 82 % 93 % 0 % 1020,1 hPa 0,0 l/m 0,0 km/h (0 Bft) SW 225 0 min 0,0 UV-I 7,2 C 9,7 C 0,0 km/h (0 Bft)
05.06.2012 22:45 10,0 C 18,0 C 11,3 C 9,9 C 9,7 C 0,0 C 82 % 93 % 0 % 1019,6 hPa 0,0 l/m 0,0 km/h (0 Bft) S 180 0 min 0,0 UV-I 7,1 C 9,7 C 0,0 km/h (0 Bft)
05.06.2012 22:50 10,1 C 18,0 C 11,3 C 9,9 C 9,6 C 0,0 C 82 % 93 % 0 % 1019,6 hPa 0,0 l/m 0,0 km/h (0 Bft) S 180 0 min 0,0 UV-I 7,2 C 9,6 C 0,0 km/h (0 Bft)
05.06.2012 22:55 9,9 C 18,0 C 11,3 C 9,8 C 9,5 C 0,0 C 82 % 93 % 0 % 1019,6 hPa 0,0 l/m 0,0 km/h (0 Bft) S 180 0 min 0,0 UV-I 7,0 C 9,5 C 0,0 km/h (0 Bft)
05.06.2012 23:00 9,9 C 18,0 C 11,2 C 9,7 C 9,4 C 0,0 C 82 % 93 % 0 % 1019,6 hPa 0,0 l/m 0,0 km/h (0 Bft) S-SW 202 0 min 0,0 UV-I 7,0 C 9,4 C 0,0 km/h (0 Bft)
05.06.2012 23:12 9,7 C 18,0 C 11,2 C 9,5 C 9,0 C 0,0 C 82 % 93 % 0 % 1019,6 hPa 0,0 l/m 0,2 km/h (0 Bft) N 0 0 min 0,0 UV-I 6,8 C 9,0 C 2,9 km/h (1 Bft)
05.06.2012 23:25 9,6 C 18,1 C 11,1 C 9,3 C 8,7 C 0,0 C 83 % 93 % 0 % 1019,1 hPa 0,0 l/m 0,3 km/h (0 Bft) W 270 0 min 0,0 UV-I 6,9 C 8,7 C 0,0 km/h (0 Bft)
05.06.2012 23:30 9,5 C 18,1 C 11,1 C 9,2 C 8,7 C 0,0 C 84 % 93 % 0 % 1019,1 hPa 0,0 l/m 0,0 km/h (0 Bft) W-SW 247 0 min 0,0 UV-I 6,9 C 8,7 C 0,0 km/h (0 Bft)
05.06.2012 23:35 9,4 C 18,1 C 11,1 C 9,1 C 8,4 C 0,0 C 84 % 93 % 0 % 1019,1 hPa 0,0 l/m 0,0 km/h (0 Bft) S 180 0 min 0,0 UV-I 6,8 C 8,4 C 0,0 km/h (0 Bft)
05.06.2012 23:40 9,3 C 18,1 C 11,1 C 9,0 C 8,4 C 0,0 C 84 % 93 % 0 % 1019,1 hPa 0,0 l/m 0,0 km/h (0 Bft) S 180 0 min 0,0 UV-I 6,7 C 8,4 C 0,0 km/h (0 Bft)
05.06.2012 23:45 9,2 C 18,1 C 11,1 C 8,9 C 8,3 C 0,0 C 85 % 94 % 0 % 1018,7 hPa 0,0 l/m 0,0 km/h (0 Bft) W-SW 247 0 min 0,0 UV-I 6,8 C 8,3 C 0,0 km/h (0 Bft)
05.06.2012 23:50 9,1 C 18,1 C 11,1 C 8,8 C 8,2 C 0,0 C 84 % 94 % 0 % 1018,7 hPa 0,0 l/m 0,5 km/h (0 Bft) SW 225 0 min 0,0 UV-I 6,5 C 8,2 C 1,6 km/h (1 Bft)
05.06.2012 23:55 8,9 C 18,1 C 11,1 C 8,7 C 8,2 C 0,0 C 84 % 94 % 0 % 1018,7 hPa 0,0 l/m 0,6 km/h (0 Bft) SW 225 0 min 0,0 UV-I 6,3 C 8,2 C 0,0 km/h (0 Bft)
_ Min-Zeit 07:20 13:45 08:05 07:30 07:30 00:00 16:45 17:00 00:00 02:19 - 00:00 - - - 00:00 16:12 05:25 00:00
Minimum _ 7,2 C 17,5 C 9,3 C 7,0 C 6,7 C 0,0 C 60 % 89 % 0 % 1008,1 hPa - 0,0 km/h (0 Bft) - - - 0,0 UV-I 4,8 C 5,3 C 0,0 km/h (0 Bft)
_ Max-Zeit 17:35 00:00 00:00 14:55 14:55 13:25 03:19 04:16 13:25 18:25 01:30 04:00 - - 13:15 00:00 03:19 14:55 05:25
Maximum _ 12,8 C 19,6 C 12,8 C 16,5 C 16,5 C 4,2 C 92 % 96 % 100 % 1020,1 hPa 0,7 l/m 8,7 km/h
W-SW (2 Bft)
- - 15 min 0,0 UV-I 10,2 C 16,5 C 25,7 km/h
S (4 Bft)
Durchschnitt _ 10,3 C 18,3 C 11,2 C 11,1 C 11,0 C 0,9 C 80 % 94 % 22 % 1016,1 hPa #2,7 l/m 3,7 km/h (1 Bft) SW - #1:19 h 0,0 UV-I 6,8 C 10,7 C 5,1 km/h (1 Bft)
2012 www.wetterstation-wechselburg.de